Lapaz, IN

3:44 AM EDT on August 21, 2014 (GMT -0400)
Marshall County Building | Change Station
CLOSE
Current Station
Personal Weather Station
Location: Plymouth, IN
Elevation: 814 ft
Nearby Weather Stations

Elev 814 ft 41.34 °N, 86.31 °W | Updated 10 minutes ago

Partly Cloudy
Partly Cloudy
70.9 °F
Feels Like 70.9 °F
N
1.0
Wind Variable Wind from WSW
Gusts 10.0 mph

Today
High -- | Low -- °F
--% Chance of Precip.
Yesterday
High -- | Low -- °F
Precip. -- in
7:00 AM 8:35 PM
Waning Crescent, 16% visible
Pressure 29.96 in
Visibility 10.0 miles
Clouds Few 10000 ft
Dew Point 68 °F
Humidity 90%
Rainfall 0.00 in
Snow Depth Not available.
UV 0.0 out of 12
Pollen 10.20 out of 12
Air Quality Not available.
Flu Activity Not available.
METAR KSBN 210654Z 21011KT 10SM FEW100 22/19 A2998 RMK AO2 SLP145 T02220194 PWINO $

More Conditions Fewer Conditions

Pressure 29.96 in
Visibility 10.0 miles
Clouds Few 10000 ft
Dew Point 68 °F
Humidity 90%
Rainfall 0.00 in
Snow Depth Not available.
UV 0.0 out of 12
Pollen 10.20 out of 12
Air Quality Not available.
Flu Activity Not available.
METAR KSBN 210654Z 21011KT 10SM FEW100 22/19 A2998 RMK AO2 SLP145 T02220194 PWINO $

More Conditions Fewer Conditions

10-Day Weather Forecast

Almanac

Astronomy

Aug. 21, 2014 Rise Set
Actual Time 7:00 AM EDT 8:35 PM EDT
Civil Twilight 6:30 AM EDT 9:04 PM EDT
Nautical Twilight 5:55 AM EDT 9:40 PM EDT
Astronomical Twilight 5:17 AM EDT 10:17 PM EDT
Moon 3:28 AM EDT 6:05 PM EDT
Length of Visible Light 14h 33m
Length of Day
13h 35m
Tomorrow will be 2m 33s shorter.
Waning Crescent, 16% of the Moon is Illuminated
Today
Waning Crescent
Aug 25
New
Sep 2
First Quarter
Sep 8
Full
Sep 15
Last Quarter

Today's Extremes

State Highs State Lows

Community

WunderPhotos

Upload Photos

1,745,858 photos uploaded!

Nearby

Snow Depth

Station Depth Elevation
No new snow has been reported.

Earthquake Activity

City Distance Mag. Time & Date
No recent earthquake activity has been reported nearby.
Minimum magnitude displayed is 2.5.

Coastal Water Temperatures

Place Temperature
No Stations Reporting

Nearby Weather Stations